Main page
METAR-TAF:

METAR-TAF

Airports :

Wattisham Flying Station

Wattisham, England

latitude: 52-07N, longitude: 000-58E, elevation: 87 m

Current weather observation

The report was made 22 minutes ago, at 23:56 UTC
Wind 8 kt from the South
Temperature 8°C
Humidity 93%
Pressure 1011 hPa
Visibility 10 km or more
no clouds below 1500 m and no cumulonimbus

METAR: EGUW 242356Z 18008KT CAVOK 08/07 Q1011 NOSIG RMK BLU BLU

Time: 00:18 (00:18 UTC)

Forecast

The report was made 3 hours and 56 minutes ago, at 20:22 UTC
Forecast valid from 24 at 21 UTC to 25 at 02 UTC
Wind 9 kt from the South
Visibility 10 km or more
Scattered clouds at a height of 1200 ft
Temporary
from 24 at 21 UTC to 25 at 02 UTC
Few clouds at a height of 1200 ft
Probability 30%
from 25 at 00 UTC to 25 at 02 UTC
Visibility: 7000 m
mist

TAF: EGUW 242022Z 2421/2502 18009KT 9999 SCT012 TEMPO 2421/2502 FEW012 PROB30 2500/2502 7000 BR

Weather observations and forecasts of more than 4000 airports (METAR and TAF reports).

The available stations are represented by yellow and red dots on the map.

Hover mouse over dot to see the name of the station.

Then click to see weather observations and forecasts.

To change the map : click on the green buttons with a black cross to zoom in, on the green button with a dash to zoom out, or on the green arrows for adjacent maps.


METAR-TAF: